Time;durP1;ratioP1;P1;durP2;ratioP2;P2;SDS_P1;SDS_P2;PMS_P1;PMS_P2;Temp;Humidity;BMP_temperature;BMP_pressure;BME280_temperature;BME280_humidity;BME280_pressure;Samples;Min_cycle;Max_cycle;Signal;HPM_P1;HPM_P2
2021/03/17 00:02:15;;;;;;;19.60;11.98;;;1.60;99.90;;;;;;4971322;28;20026;-75
2021/03/17 00:04:40;;;;;;;16.88;10.73;;;1.60;99.90;;;;;;4971176;28;20033;-75
2021/03/17 00:07:06;;;;;;;18.33;11.30;;;1.60;99.90;;;;;;4970013;28;20027;-74
2021/03/17 00:09:32;;;;;;;20.67;12.27;;;1.70;99.90;;;;;;4970163;28;20062;-75
2021/03/17 00:11:58;;;;;;;19.60;11.77;;;1.60;99.90;;;;;;4970871;28;20121;-75
2021/03/17 00:14:24;;;;;;;21.17;12.45;;;1.60;99.90;;;;;;4971195;28;20035;-75
2021/03/17 00:16:49;;;;;;;17.98;11.68;;;1.50;99.90;;;;;;4971062;28;20487;-75
2021/03/17 00:19:15;;;;;;;20.08;12.27;;;1.50;99.90;;;;;;4970947;28;20159;-75
2021/03/17 00:21:41;;;;;;;16.00;11.48;;;1.50;99.90;;;;;;4971035;28;20034;-75
2021/03/17 00:24:07;;;;;;;16.98;11.20;;;1.50;99.90;;;;;;4970876;28;20026;-75
2021/03/17 00:26:33;;;;;;;20.75;11.55;;;1.50;99.90;;;;;;4970812;28;20544;-75
2021/03/17 00:28:59;;;;;;;22.17;11.55;;;1.50;99.90;;;;;;4970871;28;20015;-75
2021/03/17 00:31:24;;;;;;;21.63;12.10;;;1.50;99.90;;;;;;4970943;28;20027;-75
2021/03/17 00:33:50;;;;;;;18.73;11.02;;;1.40;99.90;;;;;;4971048;28;20019;-75
2021/03/17 00:36:16;;;;;;;18.42;11.90;;;1.30;99.90;;;;;;4970672;28;20035;-75
2021/03/17 00:38:43;;;;;;;18.60;11.70;;;1.30;99.90;;;;;;4969536;28;20027;-75
2021/03/17 00:41:12;;;;;;;20.52;11.90;;;1.30;99.90;;;;;;4970755;28;20033;-75
2021/03/17 00:43:38;;;;;;;16.83;11.63;;;1.40;99.90;;;;;;4970015;28;20035;-74
2021/03/17 00:46:04;;;;;;;19.20;12.07;;;1.40;99.90;;;;;;4970752;28;20220;-75
2021/03/17 00:48:30;;;;;;;19.27;11.30;;;1.50;99.90;;;;;;4970774;28;20034;-75
2021/03/17 00:50:55;;;;;;;20.25;10.68;;;1.60;99.90;;;;;;4970762;28;20019;-75
2021/03/17 00:53:21;;;;;;;20.08;11.90;;;1.50;99.90;;;;;;4970565;28;20419;-75
2021/03/17 00:55:47;;;;;;;18.05;11.38;;;1.50;99.90;;;;;;4970614;28;20113;-75
2021/03/17 00:58:12;;;;;;;20.52;11.75;;;1.50;99.90;;;;;;4970529;28;20098;-75
2021/03/17 01:00:38;;;;;;;20.38;12.30;;;1.60;99.90;;;;;;4970482;28;20125;-75
2021/03/17 01:03:04;;;;;;;21.77;11.75;;;1.60;99.90;;;;;;4970467;28;20698;-75
2021/03/17 01:05:30;;;;;;;16.95;10.93;;;1.50;99.90;;;;;;4970255;28;20066;-75
2021/03/17 01:07:57;;;;;;;19.13;11.38;;;1.60;99.90;;;;;;4970387;28;20027;-75
2021/03/17 01:10:25;;;;;;;17.50;11.95;;;1.70;99.90;;;;;;4970277;28;20394;-75
2021/03/17 01:12:51;;;;;;;20.02;12.70;;;1.50;99.90;;;;;;4969921;28;20095;-75
2021/03/17 01:15:20;;;;;;;16.35;10.55;;;1.40;99.90;;;;;;4969070;28;20035;-75
2021/03/17 01:17:46;;;;;;;21.23;11.25;;;1.40;99.90;;;;;;4970487;28;20084;-75
2021/03/17 01:20:13;;;;;;;17.38;11.68;;;1.50;99.90;;;;;;4970253;28;20027;-75
2021/03/17 01:22:39;;;;;;;18.63;9.85;;;1.50;99.90;;;;;;4970210;28;20027;-75
2021/03/17 01:25:14;;;;;;;18.45;10.27;;;1.50;99.90;;;;;;4969974;28;20112;-75
2021/03/17 01:27:40;;;;;;;19.35;10.05;;;1.60;99.90;;;;;;4970087;28;20027;-75
2021/03/17 01:30:07;;;;;;;15.85;10.20;;;1.60;99.90;;;;;;4970161;28;20015;-75
2021/03/17 01:32:34;;;;;;;16.30;10.23;;;1.70;99.90;;;;;;4970172;28;20060;-75
2021/03/17 01:35:00;;;;;;;16.08;9.98;;;1.50;99.90;;;;;;4970005;28;20081;-75
2021/03/17 01:37:26;;;;;;;16.60;11.15;;;1.30;99.90;;;;;;4970460;28;20027;-75
2021/03/17 01:39:51;;;;;;;18.48;10.05;;;1.30;99.90;;;;;;4952688;28;20049;-75
2021/03/17 01:42:17;;;;;;;18.13;10.50;;;1.30;99.90;;;;;;4970012;28;20084;-75
2021/03/17 01:44:43;;;;;;;17.75;10.80;;;1.30;99.90;;;;;;4969778;28;20031;-75
2021/03/17 01:47:09;;;;;;;16.48;10.35;;;1.40;99.90;;;;;;4968658;28;20107;-75
2021/03/17 01:49:34;;;;;;;14.48;9.52;;;1.40;99.90;;;;;;4969923;28;20023;-75
2021/03/17 01:52:01;;;;;;;19.90;11.43;;;1.40;99.90;;;;;;4969807;28;20027;-75
2021/03/17 01:54:26;;;;;;;19.35;10.93;;;1.40;99.90;;;;;;4971894;28;20514;-75
2021/03/17 01:56:52;;;;;;;14.93;10.25;;;1.60;99.90;;;;;;4973270;28;20038;-75
2021/03/17 01:59:19;;;;;;;16.25;10.90;;;1.70;99.90;;;;;;4973082;28;20540;-75
2021/03/17 02:01:45;;;;;;;13.75;9.57;;;1.70;99.90;;;;;;4973135;28;20080;-75
2021/03/17 02:04:11;;;;;;;20.77;10.88;;;1.70;99.90;;;;;;4972971;28;20410;-75
2021/03/17 02:06:37;;;;;;;11.88;9.40;;;1.60;99.90;;;;;;4972829;28;20026;-75
2021/03/17 02:09:03;;;;;;;13.38;9.48;;;1.70;99.90;;;;;;4972964;28;20027;-75
2021/03/17 02:11:28;;;;;;;14.68;10.45;;;1.70;99.90;;;;;;4971423;28;20085;-75
2021/03/17 02:14:06;;;;;;;13.80;9.32;;;1.60;99.90;;;;;;4972995;28;20041;-75
2021/03/17 02:16:44;;;;;;;14.52;8.88;;;1.60;99.90;;;;;;4973133;28;20042;-75
2021/03/17 02:19:12;;;;;;;15.32;9.75;;;1.50;99.90;;;;;;4972780;28;20608;-75
2021/03/17 02:21:57;;;;;;;14.93;10.02;;;1.30;99.90;;;;;;4972888;28;20027;-75
2021/03/17 02:24:46;;;;;;;13.68;9.50;;;1.40;99.90;;;;;;4972880;28;20023;-75
2021/03/17 02:27:24;;;;;;;14.00;9.35;;;1.40;99.90;;;;;;4990588;28;20062;-75
2021/03/17 02:30:11;;;;;;;17.48;9.00;;;1.50;99.90;;;;;;4972721;28;20422;-75
2021/03/17 02:33:02;;;;;;;14.63;9.60;;;1.50;99.90;;;;;;4972821;28;20051;-75
2021/03/17 02:35:30;;;;;;;16.60;10.00;;;1.60;99.90;;;;;;4971379;28;20586;-75
2021/03/17 02:37:59;;;;;;;17.83;10.07;;;1.60;99.90;;;;;;4972471;28;20031;-75
2021/03/17 02:40:33;;;;;;;15.65;10.23;;;1.50;99.90;;;;;;4972586;28;20106;-75
2021/03/17 02:43:11;;;;;;;13.05;9.07;;;1.50;99.90;;;;;;4972628;28;20023;-75
2021/03/17 02:45:40;;;;;;;12.55;9.07;;;1.50;99.90;;;;;;4972393;28;20031;-74
2021/03/17 02:48:12;;;;;;;12.02;8.13;;;1.50;99.90;;;;;;4972396;28;20199;-75
2021/03/17 02:50:42;;;;;;;14.48;9.25;;;1.50;99.90;;;;;;4972528;28;20031;-74
2021/03/17 02:53:09;;;;;;;10.23;6.88;;;1.70;99.90;;;;;;4972529;28;20031;-74
2021/03/17 02:55:41;;;;;;;11.82;7.63;;;1.70;99.90;;;;;;4972302;28;20037;-74
2021/03/17 02:58:08;;;;;;;11.45;7.32;;;1.70;99.90;;;;;;4972321;28;20033;-74
2021/03/17 03:00:34;;;;;;;8.88;6.47;;;1.60;99.90;;;;;;4972288;28;20494;-74
2021/03/17 03:03:01;;;;;;;9.05;6.25;;;1.60;99.90;;;;;;4972165;28;20023;-74
2021/03/17 03:05:28;;;;;;;10.50;6.50;;;1.60;99.90;;;;;;4971361;28;20088;-74
2021/03/17 03:07:57;;;;;;;8.82;7.00;;;1.50;99.90;;;;;;4972098;28;20022;-74
2021/03/17 03:10:28;;;;;;;9.07;6.80;;;1.50;99.90;;;;;;4971998;28;20038;-74
2021/03/17 03:12:54;;;;;;;8.68;6.43;;;1.60;99.90;;;;;;4971765;28;20023;-74
2021/03/17 03:15:22;;;;;;;10.48;7.10;;;1.60;99.90;;;;;;4971918;28;20027;-74
2021/03/17 03:17:50;;;;;;;10.88;6.88;;;1.70;99.90;;;;;;4971890;28;20031;-74
2021/03/17 03:20:19;;;;;;;11.45;7.47;;;1.60;99.90;;;;;;4972044;28;20041;-74
2021/03/17 03:22:46;;;;;;;10.20;7.15;;;1.80;99.90;;;;;;4971957;28;20031;-74
2021/03/17 03:25:15;;;;;;;15.05;8.32;;;1.80;99.90;;;;;;4971722;28;20508;-75
2021/03/17 03:27:41;;;;;;;12.20;7.93;;;2.00;99.90;;;;;;4971763;28;20023;-74
2021/03/17 03:30:09;;;;;;;14.05;8.88;;;2.00;99.90;;;;;;4971766;28;20023;-74
2021/03/17 03:32:35;;;;;;;11.10;7.88;;;2.10;99.90;;;;;;4971789;28;20023;-75
2021/03/17 03:35:04;;;;;;;13.70;8.07;;;2.10;99.90;;;;;;4971649;28;20034;-73
2021/03/17 03:37:30;;;;;;;12.20;8.10;;;2.30;99.90;;;;;;4971677;28;20023;-74
2021/03/17 03:39:56;;;;;;;15.20;8.18;;;2.40;99.90;;;;;;4971640;28;20562;-74
2021/03/17 03:42:22;;;;;;;13.23;8.77;;;2.40;99.90;;;;;;4971650;28;20027;-74
2021/03/17 03:44:47;;;;;;;14.27;8.40;;;2.40;99.90;;;;;;4971434;28;20065;-74
2021/03/17 03:47:13;;;;;;;12.20;8.88;;;2.30;99.90;;;;;;4971536;28;20051;-74
2021/03/17 03:49:39;;;;;;;12.18;8.23;;;2.40;99.90;;;;;;4971446;28;20112;-75
2021/03/17 03:52:10;;;;;;;17.15;10.55;;;2.40;99.90;;;;;;4971528;28;20015;-74
2021/03/17 03:54:52;;;;;;;13.85;9.60;;;2.30;99.90;;;;;;4971308;28;20076;-74
2021/03/17 03:57:23;;;;;;;16.88;9.80;;;2.30;99.90;;;;;;4971407;28;20039;-74
2021/03/17 03:59:55;;;;;;;14.05;8.30;;;2.20;99.90;;;;;;4970267;28;20160;-74
2021/03/17 04:02:26;;;;;;;12.95;7.63;;;2.40;99.90;;;;;;4971384;28;20027;-74
2021/03/17 04:04:55;;;;;;;10.95;6.85;;;2.60;99.90;;;;;;4971209;28;20031;-74
2021/03/17 04:07:22;;;;;;;14.60;8.82;;;2.50;99.90;;;;;;4971257;28;20026;-75
2021/03/17 04:09:50;;;;;;;14.90;10.48;;;2.50;99.90;;;;;;4971169;28;20023;-75
2021/03/17 04:12:20;;;;;;;22.23;8.77;;;2.60;99.90;;;;;;4970975;28;20046;-75
2021/03/17 04:14:52;;;;;;;12.10;8.80;;;2.60;99.90;;;;;;4971092;28;20041;-74
2021/03/17 04:17:51;;;;;;;16.88;9.57;;;2.70;99.90;;;;;;4970007;28;20030;-74
2021/03/17 04:20:22;;;;;;;17.35;9.13;;;2.70;99.90;;;;;;4973581;28;20043;-74
2021/03/17 04:22:49;;;;;;;20.13;9.32;;;2.60;99.90;;;;;;4971162;28;20018;-75
2021/03/17 04:25:19;;;;;;;13.63;9.07;;;2.70;99.90;;;;;;4970807;28;20023;-74
2021/03/17 04:27:47;;;;;;;11.15;9.00;;;2.80;99.90;;;;;;4970893;28;20023;-74
2021/03/17 04:30:14;;;;;;;15.35;8.88;;;2.90;99.90;;;;;;4970984;28;20019;-74
2021/03/17 04:32:42;;;;;;;12.32;8.60;;;2.90;99.90;;;;;;4970815;28;20105;-74
2021/03/17 04:35:09;;;;;;;20.05;10.13;;;3.00;99.90;;;;;;4970746;28;20085;-74
2021/03/17 04:37:36;;;;;;;45.78;12.13;;;3.00;99.90;;;;;;4970773;28;20031;-74
2021/03/17 04:40:04;;;;;;;20.85;10.35;;;2.90;99.90;;;;;;4970710;28;20041;-74
2021/03/17 04:42:30;;;;;;;15.93;9.82;;;2.70;99.90;;;;;;4969646;28;20119;-74
2021/03/17 04:44:57;;;;;;;15.32;9.20;;;2.70;99.90;;;;;;4970616;28;20034;-74
2021/03/17 04:47:25;;;;;;;16.73;9.43;;;2.70;99.90;;;;;;4970620;28;20565;-74
2021/03/17 04:49:53;;;;;;;20.27;10.68;;;2.70;99.90;;;;;;4969529;28;20034;-74
2021/03/17 04:52:22;;;;;;;16.75;10.93;;;2.70;99.90;;;;;;4971096;28;20479;-73
2021/03/17 04:54:48;;;;;;;16.65;11.52;;;2.70;99.90;;;;;;4970719;28;20129;-74
2021/03/17 04:57:19;;;;;;;22.65;12.18;;;2.50;99.90;;;;;;4970542;28;20108;-74
2021/03/17 04:59:46;;;;;;;21.05;13.27;;;2.50;99.90;;;;;;4970535;28;20376;-74
2021/03/17 05:02:16;;;;;;;23.73;13.00;;;2.70;99.90;;;;;;4970531;28;20039;-74
2021/03/17 05:04:43;;;;;;;26.90;13.45;;;2.70;99.90;;;;;;4970403;28;20057;-74
2021/03/17 05:07:11;;;;;;;20.35;12.80;;;2.80;99.90;;;;;;4970391;28;20019;-74
2021/03/17 05:09:38;;;;;;;14.05;8.93;;;2.60;99.90;;;;;;4970344;28;20034;-74
2021/03/17 05:12:05;;;;;;;9.10;6.00;;;2.30;99.90;;;;;;4970290;28;20037;-74
2021/03/17 05:14:33;;;;;;;14.20;7.97;;;2.00;99.90;;;;;;4970217;28;20390;-74
2021/03/17 05:17:03;;;;;;;13.95;8.05;;;1.90;99.90;;;;;;4970287;28;20030;-74
2021/03/17 05:19:31;;;;;;;14.18;6.45;;;1.90;99.90;;;;;;4970418;28;20383;-74
2021/03/17 05:21:58;;;;;;;12.15;6.07;;;1.90;99.90;;;;;;4970296;28;20035;-73
2021/03/17 05:24:25;;;;;;;9.52;5.88;;;1.90;99.90;;;;;;4970206;28;20426;-74
2021/03/17 05:26:53;;;;;;;9.82;6.22;;;2.00;99.90;;;;;;4970245;28;20023;-73
2021/03/17 05:29:21;;;;;;;9.25;6.10;;;1.90;99.90;;;;;;4972141;28;20026;-74
2021/03/17 05:31:52;;;;;;;13.00;7.38;;;1.80;99.90;;;;;;4973475;28;20111;-74
2021/03/17 05:34:19;;;;;;;11.85;7.28;;;1.80;99.90;;;;;;4973638;28;20395;-73
2021/03/17 05:36:46;;;;;;;19.73;7.85;;;1.80;99.90;;;;;;4973427;28;20035;-73
2021/03/17 05:39:12;;;;;;;24.75;9.10;;;1.80;99.90;;;;;;4973533;28;20506;-73
2021/03/17 05:41:39;;;;;;;17.98;8.52;;;1.90;99.90;;;;;;4973425;28;20100;-73
2021/03/17 05:44:06;;;;;;;22.60;8.10;;;1.90;99.90;;;;;;4973240;28;20035;-73
2021/03/17 05:46:32;;;;;;;23.70;7.93;;;2.00;99.90;;;;;;4973271;28;20023;-74
2021/03/17 05:48:59;;;;;;;22.23;9.48;;;2.10;99.90;;;;;;4973277;28;20026;-74
2021/03/17 05:51:25;;;;;;;29.95;8.60;;;2.10;99.90;;;;;;4973351;28;20019;-74
2021/03/17 05:53:51;;;;;;;34.50;9.27;;;2.20;99.90;;;;;;4973372;28;20034;-74
2021/03/17 05:56:17;;;;;;;16.80;9.32;;;2.00;99.90;;;;;;4973046;28;20110;-74
2021/03/17 05:58:44;;;;;;;36.55;12.02;;;2.20;99.90;;;;;;4972903;28;20092;-74
2021/03/17 06:01:13;;;;;;;35.53;9.73;;;2.20;99.90;;;;;;4973113;28;20037;-74
2021/03/17 06:03:39;;;;;;;26.02;9.45;;;2.30;99.90;;;;;;4973096;28;20133;-74
2021/03/17 06:06:08;;;;;;;32.50;10.13;;;2.40;99.90;;;;;;4971793;28;20022;-74
2021/03/17 06:08:39;;;;;;;26.00;9.48;;;2.50;99.90;;;;;;5039829;28;20024;-74
2021/03/17 06:11:08;;;;;;;22.42;9.38;;;2.50;99.90;;;;;;5073826;28;20033;-75
2021/03/17 06:13:38;;;;;;;20.75;9.07;;;2.50;99.90;;;;;;5017880;28;20106;-75
2021/03/17 06:16:08;;;;;;;32.60;10.50;;;2.40;99.90;;;;;;4973239;28;20034;-74
2021/03/17 06:18:36;;;;;;;23.80;10.60;;;2.50;99.90;;;;;;4972992;28;20105;-74
2021/03/17 06:21:04;;;;;;;29.08;11.90;;;2.40;99.90;;;;;;4973012;28;20038;-75
2021/03/17 06:23:30;;;;;;;25.23;11.15;;;2.30;99.90;;;;;;4971895;28;20038;-74
2021/03/17 06:25:57;;;;;;;24.48;11.95;;;2.40;99.90;;;;;;4971272;28;20031;-75
2021/03/17 06:28:24;;;;;;;24.75;12.05;;;2.60;99.90;;;;;;4973421;28;20049;-75
2021/03/17 06:30:53;;;;;;;39.08;12.45;;;2.40;99.90;;;;;;4970424;28;20028;-74
2021/03/17 06:33:19;;;;;;;32.15;13.02;;;2.40;99.90;;;;;;4970922;28;20031;-74
2021/03/17 06:35:45;;;;;;;30.10;11.82;;;2.40;99.90;;;;;;4969882;28;20030;-77
2021/03/17 06:38:22;;;;;;;29.50;12.23;;;2.40;99.90;;;;;;4969429;28;20081;-75
2021/03/17 06:40:58;;;;;;;30.75;13.55;;;2.40;99.90;;;;;;4968222;28;20039;-75
2021/03/17 06:43:40;;;;;;;31.58;12.98;;;2.60;99.90;;;;;;4969907;28;20037;-75
2021/03/17 06:46:08;;;;;;;25.25;12.77;;;2.50;99.90;;;;;;4971252;28;20076;-75
2021/03/17 06:48:34;;;;;;;27.13;12.00;;;2.50;99.90;;;;;;4971337;28;20038;-75
2021/03/17 06:51:18;;;;;;;25.52;12.73;;;2.50;99.90;;;;;;4971088;28;20027;-75
2021/03/17 06:53:45;;;;;;;23.30;13.40;;;2.50;99.90;;;;;;4969746;28;20033;-75
2021/03/17 06:56:27;;;;;;;28.05;13.70;;;2.40;99.90;;;;;;4971181;28;20304;-75
2021/03/17 06:58:54;;;;;;;23.83;13.15;;;2.40;99.90;;;;;;4968358;28;20031;-74
2021/03/17 07:01:27;;;;;;;22.10;12.65;;;2.60;99.90;;;;;;4971441;28;20022;-75
2021/03/17 07:04:13;;;;;;;20.05;12.15;;;2.60;99.90;;;;;;4970358;28;20060;-75
2021/03/17 07:06:44;;;;;;;20.05;12.20;;;2.40;99.90;;;;;;4971077;28;20034;-75
2021/03/17 07:09:22;;;;;;;24.67;13.40;;;2.50;99.90;;;;;;4970487;28;20023;-75
2021/03/17 07:11:49;;;;;;;30.13;13.73;;;2.60;99.90;;;;;;4969684;28;20047;-75
2021/03/17 07:14:26;;;;;;;28.92;12.60;;;2.50;99.90;;;;;;4970953;28;20073;-75
2021/03/17 07:16:52;;;;;;;31.20;14.40;;;2.70;99.90;;;;;;4971066;28;20045;-75
2021/03/17 07:19:37;;;;;;;30.70;13.55;;;2.70;99.90;;;;;;4969667;28;20034;-75
2021/03/17 07:22:14;;;;;;;37.42;14.68;;;2.70;99.90;;;;;;4973034;28;20058;-75
2021/03/17 07:24:51;;;;;;;27.17;13.40;;;2.80;99.90;;;;;;4991232;28;20027;-75
2021/03/17 07:27:20;;;;;;;44.67;15.40;;;2.80;99.90;;;;;;4970479;28;20482;-75
2021/03/17 07:30:05;;;;;;;36.17;14.60;;;2.80;99.90;;;;;;4973992;28;20024;-75
2021/03/17 07:32:58;;;;;;;32.25;14.65;;;3.10;99.90;;;;;;4969893;28;20109;-75
2021/03/17 07:35:24;;;;;;;21.90;12.82;;;3.50;99.90;;;;;;4970505;28;20027;-75
2021/03/17 07:38:02;;;;;;;28.85;14.93;;;3.50;99.90;;;;;;4970406;28;20080;-75
2021/03/17 07:40:29;;;;;;;35.63;15.43;;;3.60;99.90;;;;;;4970521;28;20038;-75
2021/03/17 07:42:59;;;;;;;34.53;15.38;;;3.60;99.90;;;;;;4971368;28;20027;-75
2021/03/17 07:45:27;;;;;;;19.27;12.65;;;3.50;99.90;;;;;;4970311;28;20027;-75
2021/03/17 07:47:54;;;;;;;28.55;15.77;;;3.40;99.90;;;;;;4953023;28;20019;-75
2021/03/17 07:50:20;;;;;;;28.83;13.35;;;3.40;99.90;;;;;;4968198;28;20030;-75
2021/03/17 07:52:47;;;;;;;27.38;14.52;;;3.60;99.90;;;;;;4969937;28;20038;-75
2021/03/17 07:55:14;;;;;;;38.17;15.85;;;3.70;99.90;;;;;;4969794;28;20058;-75
2021/03/17 07:57:40;;;;;;;28.77;14.10;;;3.70;99.90;;;;;;4970374;28;20079;-75
2021/03/17 08:00:07;;;;;;;26.65;14.93;;;3.70;99.90;;;;;;4969997;28;20458;-75
2021/03/17 08:02:34;;;;;;;28.98;14.00;;;3.60;99.90;;;;;;4968281;28;20043;-75
2021/03/17 08:05:01;;;;;;;31.60;16.25;;;3.60;99.90;;;;;;4970011;28;20389;-76
2021/03/17 08:07:27;;;;;;;22.02;14.18;;;3.40;99.90;;;;;;4968650;28;20034;-75
2021/03/17 08:09:54;;;;;;;22.98;13.50;;;3.30;99.90;;;;;;4969872;28;20538;-75
2021/03/17 08:12:20;;;;;;;23.80;13.25;;;3.30;99.90;;;;;;4969790;28;20109;-73
2021/03/17 08:14:46;;;;;;;31.58;15.90;;;3.50;99.90;;;;;;4970689;28;20506;-75
2021/03/17 08:17:28;;;;;;;34.90;14.98;;;3.30;99.90;;;;;;4970694;28;20039;-74
2021/03/17 08:20:12;;;;;;;38.33;12.75;;;3.40;99.90;;;;;;4970749;28;20063;-75
2021/03/17 08:22:38;;;;;;;33.78;15.40;;;3.40;99.90;;;;;;4970596;28;20041;-74
2021/03/17 08:25:04;;;;;;;30.42;15.73;;;3.40;99.90;;;;;;4969217;28;20031;-74
2021/03/17 08:27:30;;;;;;;27.88;15.30;;;3.40;99.90;;;;;;4953465;28;20117;-74
2021/03/17 08:30:08;;;;;;;38.78;15.38;;;3.40;99.90;;;;;;4970541;28;20111;-74
2021/03/17 08:32:55;;;;;;;23.42;14.18;;;3.30;99.90;;;;;;4969441;28;20110;-74
2021/03/17 08:35:21;;;;;;;30.35;14.70;;;3.50;99.90;;;;;;4970324;28;20065;-74
2021/03/17 08:37:53;;;;;;;24.42;14.00;;;3.70;99.90;;;;;;4970606;28;20034;-74
2021/03/17 08:40:27;;;;;;;27.10;15.75;;;3.90;99.90;;;;;;4970059;28;20065;-74
2021/03/17 08:42:54;;;;;;;22.52;11.88;;;4.20;99.90;;;;;;4970220;28;20045;-74
2021/03/17 08:45:22;;;;;;;31.42;12.57;;;4.00;99.90;;;;;;4970000;28;20054;-74
2021/03/17 08:47:49;;;;;;;19.30;11.65;;;4.10;99.90;;;;;;4970124;28;20387;-74
2021/03/17 08:50:14;;;;;;;20.17;12.05;;;4.20;99.90;;;;;;4970154;28;20101;-74
2021/03/17 08:52:43;;;;;;;19.17;11.55;;;4.20;99.90;;;;;;4970059;28;20103;-74
2021/03/17 08:55:35;;;;;;;26.45;12.35;;;4.30;99.40;;;;;;4968766;28;20066;-72
2021/03/17 08:58:04;;;;;;;28.98;12.85;;;4.30;99.80;;;;;;4968812;28;20494;-75
2021/03/17 09:00:55;;;;;;;23.17;11.73;;;4.60;99.90;;;;;;4970117;28;20113;-75
2021/03/17 09:03:43;;;;;;;38.55;14.20;;;4.50;97.60;;;;;;4969225;28;20031;-74
2021/03/17 09:06:28;;;;;;;32.20;12.82;;;4.50;99.90;;;;;;4970446;28;20084;-74
2021/03/17 09:09:00;;;;;;;23.55;12.65;;;4.80;99.90;;;;;;4969964;28;20112;-75
2021/03/17 09:11:29;;;;;;;23.90;12.95;;;4.90;99.70;;;;;;4968691;28;20395;-74
2021/03/17 09:14:00;;;;;;;30.88;14.13;;;5.00;97.60;;;;;;4969863;28;20109;-75
2021/03/17 09:16:28;;;;;;;24.63;13.18;;;4.90;96.60;;;;;;4969824;28;20035;-73
2021/03/17 09:19:05;;;;;;;28.88;15.57;;;4.70;96.90;;;;;;4950336;29;20362;-73
2021/03/17 09:21:36;;;;;;;23.17;14.50;;;4.60;99.40;;;;;;4949305;28;20031;-73
2021/03/17 09:24:02;;;;;;;25.67;14.82;;;4.40;99.90;;;;;;4950445;28;20460;-73
2021/03/17 09:26:29;;;;;;;30.95;14.90;;;4.20;99.90;;;;;;4950635;28;20428;-73
2021/03/17 09:28:56;;;;;;;21.80;12.52;;;4.30;99.90;;;;;;4949287;29;20106;-73
2021/03/17 09:31:22;;;;;;;19.40;11.60;;;4.90;99.90;;;;;;4950265;29;20081;-74
2021/03/17 09:33:49;;;;;;;20.00;12.48;;;5.60;98.30;;;;;;4950520;28;20035;-74
2021/03/17 09:36:18;;;;;;;21.75;11.20;;;5.80;93.20;;;;;;4948731;29;20090;-73
2021/03/17 09:38:55;;;;;;;19.83;10.48;;;6.40;94.50;;;;;;4950654;29;20023;-73
2021/03/17 09:41:32;;;;;;;22.55;12.07;;;6.70;91.00;;;;;;4950215;28;20030;-74
2021/03/17 09:44:04;;;;;;;16.20;10.45;;;6.50;91.40;;;;;;4965106;28;20030;-74
2021/03/17 09:46:41;;;;;;;19.20;11.57;;;6.20;91.10;;;;;;4949613;29;20050;-73
2021/03/17 09:49:18;;;;;;;23.05;10.45;;;6.10;90.90;;;;;;4950287;28;20477;-73
2021/03/17 09:51:50;;;;;;;22.83;11.63;;;5.80;89.70;;;;;;4950105;28;20032;-73
2021/03/17 09:54:24;;;;;;;21.40;12.00;;;5.90;90.60;;;;;;4966626;28;20018;-74
2021/03/17 09:56:55;;;;;;;18.75;10.20;;;6.00;91.60;;;;;;4969433;28;20062;-75
2021/03/17 09:59:24;;;;;;;18.45;10.93;;;5.60;90.80;;;;;;4969438;28;20023;-75
2021/03/17 10:02:09;;;;;;;19.10;11.52;;;5.40;90.60;;;;;;4968721;28;20035;-75
2021/03/17 10:04:45;;;;;;;20.33;10.63;;;5.50;92.00;;;;;;4975140;28;20114;-73
2021/03/17 10:07:13;;;;;;;19.15;10.40;;;5.90;92.70;;;;;;4973403;28;20019;-73
2021/03/17 10:09:40;;;;;;;24.02;10.85;;;6.00;90.40;;;;;;4986968;28;20114;-74
2021/03/17 10:12:07;;;;;;;17.20;9.95;;;5.90;89.30;;;;;;4968382;28;20039;-74
2021/03/17 10:14:36;;;;;;;16.67;9.88;;;6.30;90.20;;;;;;4968016;28;20034;-74
2021/03/17 10:17:05;;;;;;;19.55;10.27;;;6.90;86.60;;;;;;4969861;28;20390;-74
2021/03/17 10:19:31;;;;;;;18.85;10.45;;;7.10;84.10;;;;;;4970126;28;20035;-74
2021/03/17 10:21:58;;;;;;;21.70;9.32;;;6.90;83.40;;;;;;4970782;28;20106;-75
2021/03/17 10:24:44;;;;;;;18.58;10.82;;;6.70;85.80;;;;;;4969800;28;20027;-74
2021/03/17 10:27:15;;;;;;;20.35;11.30;;;6.30;84.60;;;;;;4970463;28;20109;-75
2021/03/17 10:29:42;;;;;;;18.42;11.02;;;6.40;87.50;;;;;;4971355;28;20023;-75
2021/03/17 10:32:10;;;;;;;19.98;11.93;;;6.40;87.60;;;;;;4970486;28;20069;-75
2021/03/17 10:34:36;;;;;;;19.23;11.32;;;6.30;89.10;;;;;;4971174;28;20038;-75
2021/03/17 10:37:02;;;;;;;22.55;12.73;;;6.20;90.40;;;;;;4971376;28;20042;-75
2021/03/17 10:39:31;;;;;;;18.13;11.90;;;5.80;91.70;;;;;;4970150;28;20050;-75
2021/03/17 10:41:58;;;;;;;18.20;10.25;;;5.40;92.50;;;;;;4971206;28;20027;-75
2021/03/17 10:44:29;;;;;;;20.88;11.65;;;4.50;95.20;;;;;;4988895;28;20114;-75
2021/03/17 10:47:04;;;;;;;22.75;10.40;;;4.30;99.90;;;;;;4971325;28;20073;-75
2021/03/17 10:49:32;;;;;;;33.25;10.32;;;4.10;99.90;;;;;;4966856;28;20061;-75
2021/03/17 10:51:59;;;;;;;19.83;8.63;;;4.00;99.90;;;;;;4971151;28;20038;-75
2021/03/17 10:54:34;;;;;;;14.07;7.78;;;4.10;99.90;;;;;;4970262;28;20034;-75
2021/03/17 10:57:02;;;;;;;20.50;7.03;;;4.20;99.90;;;;;;4970443;28;20050;-75
2021/03/17 10:59:36;;;;;;;18.50;6.72;;;4.90;99.90;;;;;;4971359;28;20031;-75
2021/03/17 11:02:22;;;;;;;14.38;6.55;;;5.50;99.90;;;;;;4971095;28;20471;-75
2021/03/17 11:05:09;;;;;;;14.32;5.68;;;5.50;95.80;;;;;;4970144;28;20729;-75
2021/03/17 11:07:56;;;;;;;9.32;5.60;;;5.40;95.60;;;;;;4966072;28;20023;-74
2021/03/17 11:10:34;;;;;;;19.63;6.88;;;5.40;96.20;;;;;;4970934;28;20027;-74
2021/03/17 11:13:09;;;;;;;11.13;5.97;;;5.40;96.40;;;;;;4969255;28;20164;-74
2021/03/17 11:15:42;;;;;;;16.83;6.25;;;5.80;96.20;;;;;;4969896;28;20023;-73
2021/03/17 11:18:09;;;;;;;11.68;5.85;;;6.60;95.50;;;;;;4970712;28;20478;-75
2021/03/17 11:20:42;;;;;;;8.65;5.82;;;6.60;92.00;;;;;;4971119;28;20022;-75
2021/03/17 11:23:23;;;;;;;10.88;6.28;;;7.00;90.60;;;;;;4970494;28;20027;-75
2021/03/17 11:25:50;;;;;;;14.88;6.93;;;7.50;88.20;;;;;;4967345;28;20406;-74
2021/03/17 11:28:18;;;;;;;13.48;8.63;;;7.70;91.20;;;;;;4970392;28;20023;-75
2021/03/17 11:30:47;;;;;;;15.15;9.05;;;7.60;85.70;;;;;;4970142;28;20066;-74
2021/03/17 11:33:14;;;;;;;14.95;9.68;;;7.80;86.40;;;;;;4969088;28;20426;-75
2021/03/17 11:35:42;;;;;;;16.92;9.93;;;7.70;89.90;;;;;;4969929;28;20088;-74
2021/03/17 11:38:08;;;;;;;18.15;10.50;;;7.50;90.10;;;;;;4970086;28;20084;-74
2021/03/17 11:40:34;;;;;;;18.65;10.80;;;7.30;84.30;;;;;;5022097;22;20408;-73
2021/03/17 11:43:14;;;;;;;23.27;11.35;;;6.80;87.90;;;;;;5071860;28;20031;-73
2021/03/17 11:45:42;;;;;;;23.95;12.60;;;6.70;89.80;;;;;;5067729;28;20372;-73
2021/03/17 11:48:09;;;;;;;17.13;10.50;;;6.50;88.80;;;;;;5070257;28;20035;-72
2021/03/17 11:50:36;;;;;;;18.73;11.60;;;6.10;89.30;;;;;;5071440;28;20047;-72
2021/03/17 11:53:03;;;;;;;21.08;10.43;;;6.20;90.70;;;;;;5071059;28;20017;-73
2021/03/17 11:55:29;;;;;;;16.30;8.95;;;6.00;88.90;;;;;;5053389;28;20081;-73
2021/03/17 11:57:55;;;;;;;19.25;10.00;;;5.80;90.70;;;;;;5052515;28;20054;-73
2021/03/17 12:00:21;;;;;;;20.30;10.18;;;5.50;91.60;;;;;;5070816;28;21035;-73
2021/03/17 12:02:47;;;;;;;19.25;11.60;;;5.40;93.60;;;;;;5071044;28;20039;-73
2021/03/17 12:05:15;;;;;;;28.27;11.27;;;5.20;95.40;;;;;;5070476;28;20021;-75
2021/03/17 12:07:41;;;;;;;21.10;10.38;;;5.10;98.10;;;;;;5070866;28;20158;-73
2021/03/17 12:10:08;;;;;;;18.45;9.65;;;4.90;99.90;;;;;;5053298;28;20103;-73
2021/03/17 12:12:35;;;;;;;19.55;11.85;;;4.70;99.90;;;;;;5071709;28;20172;-73
2021/03/17 12:15:03;;;;;;;21.25;12.80;;;4.50;99.90;;;;;;5070813;28;20040;-73
2021/03/17 12:17:29;;;;;;;22.88;11.13;;;4.20;99.90;;;;;;5071290;28;20036;-73
2021/03/17 12:19:55;;;;;;;14.20;8.15;;;4.00;99.90;;;;;;5070815;28;20021;-73
2021/03/17 12:22:20;;;;;;;12.30;7.63;;;3.70;99.90;;;;;;5071492;28;20106;-73
2021/03/17 12:24:46;;;;;;;16.35;7.97;;;3.50;99.90;;;;;;5036307;28;20148;-73
2021/03/17 12:27:12;;;;;;;18.58;8.63;;;3.40;99.90;;;;;;5071263;28;20094;-73
2021/03/17 12:29:38;;;;;;;15.30;8.70;;;3.40;99.90;;;;;;5071281;28;20407;-73
2021/03/17 12:32:04;;;;;;;14.50;7.82;;;3.20;99.90;;;;;;5070625;28;20048;-73
2021/03/17 12:34:30;;;;;;;15.38;8.10;;;3.40;99.90;;;;;;5071186;28;20085;-73
2021/03/17 12:36:56;;;;;;;19.08;9.18;;;3.50;99.90;;;;;;5070662;28;20078;-73
2021/03/17 12:39:22;;;;;;;13.15;7.25;;;3.60;99.90;;;;;;5070243;28;20258;-74
2021/03/17 12:41:48;;;;;;;16.35;8.32;;;3.80;99.90;;;;;;5070699;28;20040;-73
2021/03/17 12:44:14;;;;;;;16.23;9.15;;;3.90;99.90;;;;;;5071064;28;20389;-73
2021/03/17 12:46:40;;;;;;;17.55;7.75;;;3.90;99.90;;;;;;5053011;28;20024;-73
2021/03/17 12:49:06;;;;;;;13.63;8.15;;;3.90;99.90;;;;;;5052454;28;20103;-73
2021/03/17 12:51:31;;;;;;;12.80;7.38;;;4.00;99.90;;;;;;5053157;28;20024;-73
2021/03/17 12:53:57;;;;;;;12.48;8.05;;;4.10;99.90;;;;;;5070753;28;20112;-73